Tonka Bay, Minnesota
Current Conditions -  °F | °C
As of 11:53 PM on Wednesday 22 Oct 2014 (Local Time) from KFCM Reporting Station
Few Clouds Few Clouds  
Wind Chill: 13°   Ceiling: Unl
Heat Index: 13°   Visibility: 10mi
Dew Point:   Wind: 13mph
Humidity: 60%   Direction: 170°S
Pressure: 30.02"   Gusts: NA
Location:  44.8924°N, 93.5895°W
Report Text: KFCM 230453Z AUTO 17011KT 10SM FEW120 13/06 A3002 RMK AO2 SLP167 T01330056
Loading
Personal Weather Stations






























Interactive Weather Map
Tropical Storm Tracking
New forecast layout! Learn more

10-Day Weather Forecast

Advertisements
Track Severe Weather on mobile